Time;durP1;ratioP1;P1;durP2;ratioP2;P2;SDS_P1;SDS_P2;PMS_P1;PMS_P2;Temp;Humidity;BMP_temperature;BMP_pressure;BME280_temperature;BME280_humidity;BME280_pressure;Samples;Min_cycle;Max_cycle;Signal;HPM_P1;HPM_P2
2022/05/18 00:00:34;;;;;;;8.77;6.13;;;19.20;72.70;;;;;;4978832;28;20472;-43
2022/05/18 00:03:05;;;;;;;6.90;5.47;;;19.10;73.00;;;;;;4969218;28;20589;-43
2022/05/18 00:05:34;;;;;;;8.30;5.10;;;19.10;73.10;;;;;;4979926;28;20949;-43
2022/05/18 00:08:01;;;;;;;8.10;5.30;;;19.10;73.10;;;;;;4975127;28;20474;-44
2022/05/18 00:10:28;;;;;;;8.20;5.43;;;19.10;73.20;;;;;;4977514;28;20475;-44
2022/05/18 00:12:55;;;;;;;5.80;5.20;;;19.00;73.30;;;;;;4976540;28;20747;-43
2022/05/18 00:15:24;;;;;;;6.53;5.40;;;19.00;73.40;;;;;;4977322;28;21167;-43
2022/05/18 00:17:51;;;;;;;5.87;4.90;;;19.00;73.20;;;;;;4980769;28;20502;-43
2022/05/18 00:20:19;;;;;;;5.60;5.07;;;19.00;73.10;;;;;;4974410;28;20466;-43
2022/05/18 00:22:51;;;;;;;6.30;5.43;;;19.00;73.20;;;;;;4975928;28;20604;-43
2022/05/18 00:25:20;;;;;;;10.43;7.50;;;19.00;73.30;;;;;;4979479;28;20464;-43
2022/05/18 00:27:48;;;;;;;6.60;5.40;;;18.90;73.30;;;;;;4978966;28;20496;-43
2022/05/18 00:30:17;;;;;;;6.53;5.90;;;18.90;73.40;;;;;;4979053;28;21417;-43
2022/05/18 00:32:45;;;;;;;6.90;5.40;;;18.90;73.20;;;;;;4975859;28;20580;-44
2022/05/18 00:35:13;;;;;;;7.97;6.20;;;18.90;73.30;;;;;;4982099;28;20455;-44
2022/05/18 00:37:40;;;;;;;8.50;5.33;;;18.80;73.20;;;;;;4977474;28;20467;-44
2022/05/18 00:40:08;;;;;;;6.77;6.07;;;18.80;73.20;;;;;;4979856;28;20883;-43
2022/05/18 00:42:35;;;;;;;6.93;5.40;;;18.80;73.10;;;;;;4976526;28;20475;-43
2022/05/18 00:45:04;;;;;;;7.17;4.87;;;18.70;73.20;;;;;;4973008;28;20889;-46
2022/05/18 00:47:31;;;;;;;6.07;5.47;;;18.60;73.50;;;;;;4978998;28;20540;-46
2022/05/18 00:50:04;;;;;;;5.27;4.77;;;18.60;73.70;;;;;;4979198;28;20556;-45
2022/05/18 00:52:41;;;;;;;6.93;6.10;;;18.60;74.10;;;;;;4962727;28;20902;-46
2022/05/18 00:55:12;;;;;;;8.23;5.60;;;18.60;74.10;;;;;;4982745;28;20975;-46
2022/05/18 00:57:47;;;;;;;6.03;5.43;;;18.60;74.20;;;;;;4978128;28;20498;-46
2022/05/18 01:00:16;;;;;;;6.90;6.27;;;18.50;74.30;;;;;;4976839;28;20836;-45
2022/05/18 01:02:50;;;;;;;7.97;5.50;;;18.50;74.30;;;;;;4976338;28;20477;-52
2022/05/18 01:05:22;;;;;;;7.30;5.70;;;18.40;74.50;;;;;;4958017;28;20490;-46
2022/05/18 01:07:53;;;;;;;8.93;5.90;;;18.40;74.60;;;;;;4971746;28;20522;-45
2022/05/18 01:10:19;;;;;;;5.90;4.70;;;18.40;74.80;;;;;;4975050;28;20863;-46
2022/05/18 01:12:47;;;;;;;6.83;5.97;;;18.40;74.90;;;;;;4977047;28;20655;-46
2022/05/18 01:15:17;;;;;;;6.90;5.57;;;18.40;74.80;;;;;;4971589;28;20602;-45
2022/05/18 01:17:48;;;;;;;6.03;5.03;;;18.40;74.90;;;;;;4973533;28;20465;-46
2022/05/18 01:20:21;;;;;;;5.47;4.97;;;18.40;74.70;;;;;;4978163;28;21093;-46
2022/05/18 01:22:57;;;;;;;6.70;6.10;;;18.40;74.40;;;;;;4982424;28;20999;-45
2022/05/18 01:25:52;;;;;;;8.53;6.20;;;18.40;74.50;;;;;;4980410;28;20471;-45
2022/05/18 01:28:21;;;;;;;8.30;5.03;;;18.30;74.40;;;;;;4980817;28;21009;-45
2022/05/18 01:30:48;;;;;;;6.63;5.30;;;18.30;74.50;;;;;;4979794;28;20489;-45
2022/05/18 01:33:17;;;;;;;7.30;5.93;;;18.20;74.60;;;;;;4980271;28;20467;-46
2022/05/18 01:35:47;;;;;;;7.57;5.30;;;18.20;74.60;;;;;;4974374;28;20489;-45
2022/05/18 01:38:15;;;;;;;6.10;5.50;;;18.20;74.70;;;;;;4979679;28;20610;-45
2022/05/18 01:41:01;;;;;;;6.20;5.30;;;18.10;74.90;;;;;;4978878;28;20494;-46
2022/05/18 01:43:40;;;;;;;6.00;5.47;;;18.10;75.00;;;;;;4981764;28;20462;-46
2022/05/18 01:46:11;;;;;;;6.47;5.30;;;18.10;75.00;;;;;;4979531;28;20461;-46
2022/05/18 01:48:42;;;;;;;5.47;5.00;;;18.10;75.00;;;;;;4980286;28;20469;-46
2022/05/18 01:51:11;;;;;;;7.57;5.30;;;18.00;75.10;;;;;;4981688;28;20463;-46
2022/05/18 01:53:38;;;;;;;6.40;5.80;;;18.00;75.10;;;;;;4980231;28;20497;-45
2022/05/18 01:56:07;;;;;;;7.00;5.80;;;17.90;75.30;;;;;;4977733;28;20506;-46
2022/05/18 01:58:34;;;;;;;7.03;5.30;;;17.90;75.40;;;;;;4978170;28;20465;-45
2022/05/18 02:01:02;;;;;;;7.47;5.67;;;17.90;75.30;;;;;;4981679;28;20542;-45
2022/05/18 02:03:29;;;;;;;5.53;5.03;;;17.90;75.40;;;;;;4979897;28;20474;-44
2022/05/18 02:05:56;;;;;;;8.07;6.37;;;17.80;75.50;;;;;;4978648;28;20470;-45
2022/05/18 02:08:23;;;;;;;7.80;5.90;;;17.80;75.50;;;;;;4982818;28;20865;-45
2022/05/18 02:10:50;;;;;;;5.80;5.20;;;17.80;75.60;;;;;;4978590;28;20462;-45
2022/05/18 02:13:17;;;;;;;7.67;6.70;;;17.80;75.70;;;;;;4959541;28;20473;-45
2022/05/18 02:15:44;;;;;;;8.10;6.10;;;17.70;75.80;;;;;;4979041;28;20466;-46
2022/05/18 02:18:11;;;;;;;10.90;6.37;;;17.70;76.00;;;;;;4975836;28;20512;-45
2022/05/18 02:20:38;;;;;;;10.13;5.90;;;17.70;76.00;;;;;;4979355;28;20492;-46
2022/05/18 02:23:06;;;;;;;6.93;5.07;;;17.80;75.80;;;;;;4979083;28;20489;-46
2022/05/18 02:25:34;;;;;;;8.60;5.50;;;17.80;75.60;;;;;;4980939;28;20464;-46
2022/05/18 02:28:01;;;;;;;7.63;5.70;;;17.70;75.70;;;;;;4978880;28;21032;-46
2022/05/18 02:30:27;;;;;;;8.60;6.40;;;17.70;75.70;;;;;;4977408;28;20516;-46
2022/05/18 02:32:54;;;;;;;6.50;5.90;;;17.70;75.70;;;;;;4976327;28;20501;-46
2022/05/18 02:35:21;;;;;;;8.80;5.50;;;17.70;75.80;;;;;;4983504;28;20577;-46
2022/05/18 02:37:48;;;;;;;5.93;5.40;;;17.70;75.70;;;;;;4981055;28;20500;-46
2022/05/18 02:40:15;;;;;;;9.03;5.23;;;17.60;75.90;;;;;;4973584;28;20477;-46
2022/05/18 02:42:42;;;;;;;6.07;5.47;;;17.60;75.80;;;;;;4978354;28;20551;-46
2022/05/18 02:45:09;;;;;;;7.37;6.63;;;17.60;76.10;;;;;;4976221;28;21037;-46
2022/05/18 02:47:36;;;;;;;8.00;5.60;;;17.60;76.10;;;;;;4977807;28;20585;-46
2022/05/18 02:50:04;;;;;;;7.63;6.40;;;17.50;76.20;;;;;;4978783;28;20466;-46
2022/05/18 02:52:31;;;;;;;6.43;5.63;;;17.50;76.30;;;;;;4973867;28;20479;-44
2022/05/18 02:57:45;;;;;;;7.27;6.03;;;17.50;76.40;;;;;;4978655;28;21042;-44
2022/05/18 03:00:13;;;;;;;7.50;6.03;;;17.40;76.60;;;;;;4977080;28;21035;-44
2022/05/18 03:02:40;;;;;;;6.30;5.70;;;17.40;76.70;;;;;;4978205;28;20483;-44
2022/05/18 03:05:08;;;;;;;8.63;5.60;;;17.40;76.80;;;;;;4985852;28;20553;-44
2022/05/18 03:07:35;;;;;;;6.40;5.80;;;17.40;76.70;;;;;;4979882;28;20586;-43
2022/05/18 03:10:02;;;;;;;8.07;5.93;;;17.40;76.70;;;;;;4976242;28;20470;-43
2022/05/18 03:12:29;;;;;;;6.57;5.87;;;17.40;76.60;;;;;;4980217;28;20564;-44
2022/05/18 03:14:56;;;;;;;8.13;6.17;;;17.40;76.50;;;;;;4976660;28;20516;-44
2022/05/18 03:17:22;;;;;;;6.60;6.00;;;17.40;76.60;;;;;;4977885;28;20485;-44
2022/05/18 03:19:49;;;;;;;7.90;5.97;;;17.40;76.60;;;;;;4981382;28;20475;-44
2022/05/18 03:25:02;;;;;;;7.80;6.00;;;17.30;76.70;;;;;;4979186;28;20544;-44
2022/05/18 03:27:29;;;;;;;9.23;6.30;;;17.30;76.60;;;;;;4977050;28;20494;-44
2022/05/18 03:29:56;;;;;;;7.83;5.90;;;17.30;76.70;;;;;;4958553;28;20769;-44
2022/05/18 03:32:23;;;;;;;5.63;5.13;;;17.30;76.70;;;;;;4963193;28;20476;-43
2022/05/18 03:34:50;;;;;;;7.67;6.50;;;17.20;76.70;;;;;;4970540;28;20468;-44
2022/05/18 03:37:18;;;;;;;9.80;6.80;;;17.20;76.80;;;;;;4971499;28;20463;-44
2022/05/18 03:39:45;;;;;;;8.63;6.10;;;17.20;76.90;;;;;;4979703;28;20521;-43
2022/05/18 03:42:12;;;;;;;8.63;7.17;;;17.10;77.00;;;;;;4978250;28;20540;-44
2022/05/18 03:44:39;;;;;;;8.33;5.30;;;17.10;77.20;;;;;;4977549;28;20473;-44
2022/05/18 03:47:06;;;;;;;8.30;6.37;;;17.10;77.40;;;;;;4977604;28;20561;-44
2022/05/18 03:49:33;;;;;;;7.50;6.63;;;17.10;77.40;;;;;;4974697;28;20497;-44
2022/05/18 03:52:00;;;;;;;7.67;6.33;;;17.10;77.40;;;;;;4974711;28;20475;-44
2022/05/18 03:54:34;;;;;;;7.87;6.33;;;17.10;77.50;;;;;;4976234;28;20539;-44
2022/05/18 03:57:01;;;;;;;12.60;6.17;;;17.10;77.60;;;;;;4973789;28;20484;-44
2022/05/18 03:59:28;;;;;;;7.10;6.27;;;17.10;77.70;;;;;;4973184;28;20521;-44
2022/05/18 04:01:55;;;;;;;7.53;5.83;;;17.10;77.70;;;;;;4972672;28;20478;-44
2022/05/18 04:04:22;;;;;;;8.67;6.23;;;17.10;77.60;;;;;;4976565;28;20532;-44
2022/05/18 04:06:48;;;;;;;9.90;7.00;;;17.10;77.70;;;;;;4975450;28;20479;-44
2022/05/18 04:09:17;;;;;;;6.97;6.27;;;17.10;77.70;;;;;;4979732;28;20465;-44
2022/05/18 04:11:44;;;;;;;6.80;5.90;;;17.10;77.80;;;;;;4978823;28;20557;-44
2022/05/18 04:14:10;;;;;;;8.17;5.80;;;17.10;77.70;;;;;;4968858;28;20948;-44
2022/05/18 04:16:37;;;;;;;6.83;5.63;;;17.10;77.70;;;;;;4978806;28;20467;-44
2022/05/18 04:19:04;;;;;;;10.67;6.50;;;17.10;77.60;;;;;;4977480;28;20569;-44
2022/05/18 04:21:31;;;;;;;10.30;8.70;;;17.20;77.60;;;;;;4974912;28;20496;-44
2022/05/18 04:23:58;;;;;;;7.10;5.77;;;17.10;77.70;;;;;;4975010;28;20474;-44
2022/05/18 04:26:24;;;;;;;8.13;6.20;;;17.10;77.80;;;;;;4973177;28;20473;-44
2022/05/18 04:28:51;;;;;;;7.30;5.90;;;17.20;77.90;;;;;;4976298;28;20507;-45
2022/05/18 04:31:18;;;;;;;9.17;6.17;;;17.20;77.90;;;;;;4972867;28;20835;-45
2022/05/18 04:33:45;;;;;;;8.93;5.87;;;17.20;78.00;;;;;;4977748;28;20850;-44
2022/05/18 04:36:12;;;;;;;7.00;6.30;;;17.20;78.00;;;;;;4980684;28;20484;-44
2022/05/18 04:38:39;;;;;;;6.60;5.87;;;17.30;78.00;;;;;;4977187;28;20888;-45
2022/05/18 04:41:05;;;;;;;8.30;6.67;;;17.30;78.00;;;;;;4978790;28;20473;-44
2022/05/18 04:43:32;;;;;;;8.90;6.43;;;17.30;77.90;;;;;;4978024;28;20749;-44
2022/05/18 04:46:00;;;;;;;11.93;7.63;;;17.40;77.90;;;;;;4973802;28;20847;-44
2022/05/18 04:48:30;;;;;;;10.80;7.30;;;17.40;77.80;;;;;;4974320;28;20498;-44
2022/05/18 04:50:58;;;;;;;7.70;6.67;;;17.40;78.00;;;;;;4970485;28;20466;-44
2022/05/18 04:53:25;;;;;;;8.20;7.40;;;17.40;77.90;;;;;;4975842;28;20460;-44
2022/05/18 04:55:52;;;;;;;7.50;6.80;;;17.50;77.80;;;;;;4980751;28;20465;-44
2022/05/18 04:58:18;;;;;;;10.03;6.30;;;17.50;77.60;;;;;;4983179;28;20589;-44
2022/05/18 05:00:51;;;;;;;12.10;7.20;;;17.60;77.30;;;;;;4981085;28;20551;-44
2022/05/18 05:03:18;;;;;;;10.40;7.23;;;17.60;77.20;;;;;;4979384;28;20489;-44
2022/05/18 05:05:50;;;;;;;9.47;8.17;;;17.60;77.10;;;;;;4982967;28;20479;-44
2022/05/18 05:08:17;;;;;;;10.60;7.50;;;17.60;77.20;;;;;;4973628;28;20497;-44
2022/05/18 05:10:43;;;;;;;9.23;7.60;;;17.60;77.10;;;;;;4980071;28;20495;-43
2022/05/18 05:13:10;;;;;;;9.63;7.03;;;17.60;77.20;;;;;;4980784;28;20825;-43
2022/05/18 05:15:37;;;;;;;10.40;8.33;;;17.70;77.30;;;;;;4974064;28;20951;-44
2022/05/18 05:18:04;;;;;;;12.00;7.90;;;17.70;77.40;;;;;;4975875;28;20473;-44
2022/05/18 05:20:31;;;;;;;9.57;7.80;;;17.80;77.40;;;;;;4977659;28;20462;-44
2022/05/18 05:22:58;;;;;;;9.60;8.50;;;17.80;77.40;;;;;;4978605;28;21076;-44
2022/05/18 05:25:25;;;;;;;11.07;8.47;;;17.80;77.50;;;;;;4979051;28;20605;-44
2022/05/18 05:27:53;;;;;;;9.47;7.80;;;17.80;77.70;;;;;;4974630;28;20890;-44
2022/05/18 05:30:19;;;;;;;12.87;8.80;;;17.90;77.90;;;;;;4960543;28;20466;-44
2022/05/18 05:32:46;;;;;;;10.13;9.00;;;17.90;77.90;;;;;;4965140;28;21328;-44
2022/05/18 05:35:14;;;;;;;12.40;8.83;;;18.00;77.90;;;;;;4987579;28;20462;-44
2022/05/18 05:37:40;;;;;;;12.00;10.13;;;18.10;78.00;;;;;;4962529;28;20479;-44
2022/05/18 05:40:08;;;;;;;10.97;8.23;;;18.20;77.90;;;;;;4973709;28;20474;-43
2022/05/18 05:42:37;;;;;;;14.03;9.20;;;18.20;77.70;;;;;;4975206;28;20575;-44
2022/05/18 05:45:05;;;;;;;15.07;8.90;;;18.30;77.80;;;;;;4975802;28;20473;-43
2022/05/18 05:47:32;;;;;;;14.77;9.17;;;18.40;77.90;;;;;;4976386;28;20493;-43
2022/05/18 05:49:58;;;;;;;12.07;9.50;;;18.40;77.80;;;;;;4982397;28;20463;-44
2022/05/18 05:52:25;;;;;;;13.57;8.30;;;18.50;77.90;;;;;;4975837;28;20588;-43
2022/05/18 05:54:52;;;;;;;13.20;10.20;;;18.60;77.90;;;;;;4976283;28;21099;-43
2022/05/18 05:57:18;;;;;;;12.50;10.27;;;18.70;77.80;;;;;;4978109;28;21011;-43
2022/05/18 05:59:45;;;;;;;13.33;8.80;;;18.70;77.50;;;;;;4977167;28;20727;-44
2022/05/18 06:02:15;;;;;;;13.63;9.00;;;18.80;77.30;;;;;;4976981;28;20974;-44
2022/05/18 06:04:43;;;;;;;9.80;7.87;;;18.90;77.00;;;;;;4979230;28;20465;-44
2022/05/18 06:07:10;;;;;;;9.67;8.13;;;19.00;76.90;;;;;;4975957;28;20465;-44
2022/05/18 06:09:37;;;;;;;10.70;8.20;;;19.20;76.70;;;;;;4978032;28;20655;-44
2022/05/18 06:12:04;;;;;;;20.23;11.93;;;19.20;76.30;;;;;;4979217;28;20481;-44
2022/05/18 06:14:31;;;;;;;10.90;6.73;;;19.40;76.30;;;;;;4978893;28;20553;-44
2022/05/18 06:16:57;;;;;;;8.60;6.27;;;19.40;74.80;;;;;;4979898;28;20461;-43
2022/05/18 06:19:24;;;;;;;7.27;6.53;;;19.50;74.10;;;;;;4978021;28;21032;-44
2022/05/18 06:21:51;;;;;;;8.90;6.70;;;19.60;73.90;;;;;;4977250;28;21043;-43
2022/05/18 06:24:19;;;;;;;9.40;6.00;;;19.70;73.30;;;;;;4977434;28;20544;-43
2022/05/18 06:26:46;;;;;;;9.47;6.83;;;19.80;72.30;;;;;;4977022;28;20847;-45
2022/05/18 06:29:13;;;;;;;7.00;6.00;;;19.90;71.80;;;;;;4978875;28;20500;-44
2022/05/18 06:31:40;;;;;;;8.43;6.80;;;20.00;71.50;;;;;;4978827;28;20477;-44
2022/05/18 06:34:07;;;;;;;8.50;6.07;;;20.20;71.20;;;;;;4980098;28;20547;-44
2022/05/18 06:36:35;;;;;;;9.33;7.10;;;20.40;71.10;;;;;;4980142;28;20560;-44
2022/05/18 06:39:03;;;;;;;8.77;6.17;;;20.50;70.90;;;;;;4975554;28;20466;-44
2022/05/18 06:41:33;;;;;;;6.33;5.73;;;20.60;70.70;;;;;;4977452;28;20487;-44
2022/05/18 06:44:04;;;;;;;11.50;7.40;;;20.80;70.80;;;;;;4976833;28;20563;-44
2022/05/18 06:46:34;;;;;;;10.87;6.77;;;20.90;71.20;;;;;;4979502;28;20953;-44
2022/05/18 06:49:02;;;;;;;7.53;6.60;;;21.00;70.60;;;;;;4976846;28;20488;-44
2022/05/18 06:51:32;;;;;;;11.83;6.53;;;21.10;69.50;;;;;;4976652;28;21548;-45
2022/05/18 06:53:59;;;;;;;9.13;5.50;;;21.30;68.70;;;;;;4981394;28;20467;-45
2022/05/18 06:56:29;;;;;;;9.47;6.00;;;21.40;68.60;;;;;;4977677;28;20800;-44
2022/05/18 06:58:56;;;;;;;7.03;5.77;;;21.50;68.70;;;;;;4972829;28;20552;-45
2022/05/18 07:01:25;;;;;;;6.37;5.20;;;21.60;68.30;;;;;;4958863;28;20565;-44
2022/05/18 07:03:52;;;;;;;7.00;5.30;;;21.80;67.40;;;;;;4978879;28;20477;-44
2022/05/18 07:06:27;;;;;;;6.00;5.40;;;21.90;66.80;;;;;;4980238;28;20844;-44
2022/05/18 07:08:57;;;;;;;7.20;5.70;;;22.00;66.00;;;;;;4975790;28;20540;-45
2022/05/18 07:11:25;;;;;;;8.13;5.13;;;22.20;65.20;;;;;;4979363;28;20450;-45
2022/05/18 07:13:54;;;;;;;7.20;5.87;;;22.40;64.90;;;;;;4980640;28;20493;-45
2022/05/18 07:16:22;;;;;;;8.70;5.03;;;22.60;64.40;;;;;;4978045;28;20464;-45
2022/05/18 07:18:50;;;;;;;7.30;4.70;;;22.70;64.20;;;;;;4982108;28;20472;-46
2022/05/18 07:21:17;;;;;;;7.77;5.30;;;22.90;63.40;;;;;;4979233;28;20453;-45
2022/05/18 07:23:44;;;;;;;5.30;4.80;;;23.00;62.90;;;;;;4983391;28;20469;-45
2022/05/18 07:26:12;;;;;;;7.57;4.90;;;23.10;63.00;;;;;;4984503;28;20615;-44
2022/05/18 07:28:40;;;;;;;6.50;5.40;;;23.30;62.40;;;;;;4977458;28;21024;-45
2022/05/18 07:31:09;;;;;;;6.90;4.77;;;23.40;62.10;;;;;;4974098;28;20477;-45
2022/05/18 07:33:57;;;;;;;8.23;5.73;;;23.50;62.00;;;;;;4970230;28;21053;-45
2022/05/18 07:36:24;;;;;;;6.90;4.30;;;23.70;60.80;;;;;;4979655;28;20492;-46
2022/05/18 07:38:50;;;;;;;6.13;4.70;;;23.90;60.10;;;;;;4979873;28;20475;-46
2022/05/18 07:41:17;;;;;;;5.27;4.50;;;24.00;59.50;;;;;;4976424;28;20918;-46
2022/05/18 07:43:44;;;;;;;5.90;5.13;;;24.20;59.70;;;;;;4976729;28;20505;-45
2022/05/18 07:46:12;;;;;;;8.90;4.70;;;24.30;59.20;;;;;;4960647;28;20556;-45
2022/05/18 07:48:40;;;;;;;7.80;4.60;;;24.50;58.20;;;;;;4982956;28;20500;-45
2022/05/18 07:51:07;;;;;;;6.53;4.90;;;24.70;57.90;;;;;;4981259;28;20488;-45
2022/05/18 07:53:34;;;;;;;8.20;5.00;;;24.80;57.50;;;;;;4967430;28;21043;-45
2022/05/18 07:56:00;;;;;;;4.90;4.40;;;25.00;57.00;;;;;;4974587;28;20559;-45
2022/05/18 07:58:29;;;;;;;4.97;3.90;;;25.10;56.40;;;;;;4975558;28;20456;-45
2022/05/18 08:00:56;;;;;;;8.83;3.87;;;25.20;54.50;;;;;;4949623;28;20456;-45
2022/05/18 08:03:24;;;;;;;4.47;4.07;;;25.40;53.80;;;;;;4976357;28;20946;-44
2022/05/18 08:05:51;;;;;;;5.93;4.10;;;25.50;53.40;;;;;;4975839;28;20472;-44
2022/05/18 08:08:21;;;;;;;5.50;4.00;;;25.70;52.40;;;;;;4976448;28;20488;-44
2022/05/18 08:16:19;;;;;;;5.90;4.07;;;26.10;52.00;;;;;;4980092;28;20453;-44
2022/05/18 08:18:48;;;;;;;6.67;3.17;;;26.20;51.60;;;;;;4976172;28;20501;-45
2022/05/18 08:21:15;;;;;;;7.90;4.13;;;26.30;51.70;;;;;;4981774;28;20464;-44
2022/05/18 08:23:42;;;;;;;5.53;3.93;;;26.50;50.70;;;;;;4973720;28;20459;-44
2022/05/18 08:26:09;;;;;;;6.10;3.73;;;26.60;50.90;;;;;;4976660;28;21096;-44
2022/05/18 08:28:36;;;;;;;3.90;3.60;;;26.70;49.80;;;;;;4958721;28;20512;-45
2022/05/18 08:31:04;;;;;;;6.13;4.63;;;26.70;50.10;;;;;;4985553;28;20971;-44
2022/05/18 08:33:32;;;;;;;3.83;3.50;;;26.90;50.50;;;;;;4978492;28;20516;-44
2022/05/18 08:36:00;;;;;;;4.40;4.00;;;27.00;50.20;;;;;;4982297;28;20476;-44
2022/05/18 08:38:27;;;;;;;5.83;3.70;;;27.20;49.60;;;;;;4981425;28;20954;-45
2022/05/18 08:41:13;;;;;;;5.30;4.03;;;27.30;49.50;;;;;;4976816;28;20568;-45
2022/05/18 08:43:44;;;;;;;5.43;3.90;;;27.40;49.70;;;;;;4980393;28;20468;-45
2022/05/18 08:46:22;;;;;;;7.00;4.20;;;27.60;49.10;;;;;;4984431;28;20484;-45
2022/05/18 08:48:58;;;;;;;5.60;4.40;;;27.80;48.90;;;;;;4995834;28;20237;-45
2022/05/18 08:51:35;;;;;;;7.43;3.93;;;28.00;48.40;;;;;;4983810;28;20456;-44
2022/05/18 08:54:23;;;;;;;6.13;4.57;;;28.20;48.20;;;;;;4982369;28;20234;-44
2022/05/18 08:56:53;;;;;;;9.20;3.93;;;28.30;47.70;;;;;;4981185;28;20210;-45
2022/05/18 08:59:24;;;;;;;5.83;4.27;;;28.30;47.80;;;;;;4982397;28;20233;-45
2022/05/18 09:01:56;;;;;;;6.43;3.63;;;28.30;47.80;;;;;;4982891;28;20222;-45
2022/05/18 09:04:44;;;;;;;7.33;3.43;;;28.30;47.50;;;;;;4977643;28;20452;-50
2022/05/18 09:07:38;;;;;;;5.43;4.40;;;28.30;47.70;;;;;;4986826;28;20314;-50
2022/05/18 09:10:21;;;;;;;4.40;3.90;;;28.30;47.70;;;;;;4980581;28;20323;-50
2022/05/18 09:12:52;;;;;;;5.30;4.23;;;28.20;47.50;;;;;;4986026;28;20659;-50
2022/05/18 09:15:34;;;;;;;4.70;4.20;;;28.40;47.60;;;;;;4983453;28;20450;-50
2022/05/18 09:18:31;;;;;;;4.03;3.70;;;28.50;47.50;;;;;;4986440;28;20205;-50
2022/05/18 09:21:38;;;;;;;4.63;4.23;;;28.50;47.40;;;;;;4986642;28;20201;-50
2022/05/18 09:24:18;;;;;;;4.23;3.83;;;28.60;46.50;;;;;;4976328;28;20217;-50
2022/05/18 09:26:57;;;;;;;4.30;3.90;;;28.80;46.60;;;;;;4980648;28;20273;-50
2022/05/18 09:29:27;;;;;;;4.28;3.97;;;29.10;46.90;;;;;;4978030;28;20233;-50
2022/05/18 09:33:06;;;;;;;5.43;3.60;;;29.40;46.10;;;;;;4977561;28;20730;-50
2022/05/18 09:35:45;;;;;;;4.00;3.60;;;29.50;45.60;;;;;;4994650;28;20811;-50
2022/05/18 09:38:29;;;;;;;3.90;3.53;;;29.80;45.10;;;;;;4962060;28;20587;-50
2022/05/18 09:40:56;;;;;;;4.35;3.95;;;30.10;44.20;;;;;;4987399;28;20689;-50
2022/05/18 09:43:32;;;;;;;3.90;3.50;;;30.40;44.20;;;;;;4980595;28;20587;-51
2022/05/18 09:45:59;;;;;;;3.70;3.38;;;30.60;43.50;;;;;;4973806;28;20215;-51
2022/05/18 09:48:37;;;;;;;3.72;3.08;;;30.70;42.30;;;;;;4977871;28;20710;-51
2022/05/18 09:51:06;;;;;;;7.00;4.07;;;30.80;42.60;;;;;;4984043;28;20209;-51
2022/05/18 09:53:33;;;;;;;5.50;4.20;;;30.70;42.90;;;;;;4980609;28;20208;-51
2022/05/18 09:56:00;;;;;;;4.78;4.13;;;30.60;43.20;;;;;;4981689;28;20210;-51
2022/05/18 09:58:35;;;;;;;4.50;3.85;;;30.60;43.50;;;;;;4981348;28;20320;-51
2022/05/18 10:09:47;;;;;;;5.07;3.58;;;31.00;42.70;;;;;;4978975;28;20237;-47
2022/05/18 10:12:26;;;;;;;5.78;4.10;;;31.20;42.50;;;;;;4990200;28;20206;-45
2022/05/18 10:15:09;;;;;;;5.35;3.70;;;31.40;42.00;;;;;;4978634;28;20271;-48
2022/05/18 10:17:44;;;;;;;5.90;3.50;;;31.60;42.10;;;;;;4981361;28;20205;-48
2022/05/18 10:20:20;;;;;;;4.13;3.40;;;31.70;42.20;;;;;;4979655;28;20653;-47
2022/05/18 10:22:48;;;;;;;4.80;3.55;;;31.90;41.70;;;;;;4980224;28;20299;-50
2022/05/18 10:25:38;;;;;;;3.95;3.13;;;31.90;40.60;;;;;;4980603;28;20375;-50
2022/05/18 10:28:28;;;;;;;5.13;3.22;;;31.80;41.00;;;;;;4987114;28;20217;-51
2022/05/18 10:31:14;;;;;;;3.80;3.30;;;31.60;40.50;;;;;;4984277;28;20318;-49
2022/05/18 10:33:43;;;;;;;4.32;3.10;;;31.60;40.80;;;;;;4983193;28;20784;-50
2022/05/18 10:36:15;;;;;;;4.88;3.42;;;31.40;40.60;;;;;;4984606;28;20210;-48
2022/05/18 10:39:03;;;;;;;5.80;3.47;;;31.10;41.00;;;;;;4981917;28;20217;-50
2022/05/18 10:41:41;;;;;;;4.28;3.35;;;30.90;41.20;;;;;;4982752;28;20205;-51
2022/05/18 10:44:20;;;;;;;5.50;2.85;;;30.70;41.50;;;;;;4973237;28;20281;-51
2022/05/18 10:46:49;;;;;;;6.75;3.28;;;30.60;42.20;;;;;;4977134;28;20265;-46
2022/05/18 10:49:35;;;;;;;2.80;2.53;;;30.50;42.00;;;;;;4977906;28;20229;-44
2022/05/18 10:52:15;;;;;;;3.10;2.80;;;30.30;42.50;;;;;;4984218;28;20488;-51
2022/05/18 10:54:55;;;;;;;3.28;2.67;;;30.00;42.50;;;;;;4983193;28;20202;-51
2022/05/18 10:57:35;;;;;;;3.42;2.80;;;29.80;42.60;;;;;;4979203;28;20297;-51
2022/05/18 11:00:08;;;;;;;5.60;3.15;;;29.70;43.20;;;;;;4972153;28;20683;-51
2022/05/18 11:03:01;;;;;;;3.25;2.58;;;29.60;43.40;;;;;;4984613;28;20227;-51
2022/05/18 11:05:44;;;;;;;2.67;1.83;;;29.50;41.40;;;;;;4967349;28;20209;-51
2022/05/18 11:08:15;;;;;;;5.30;2.20;;;29.40;41.00;;;;;;4978226;28;20340;-51
2022/05/18 11:11:01;;;;;;;2.60;2.40;;;29.40;42.20;;;;;;4981364;28;20236;-51
2022/05/18 11:13:43;;;;;;;3.60;2.42;;;29.20;42.20;;;;;;4982069;28;20308;-51
2022/05/18 11:16:20;;;;;;;3.28;2.30;;;29.10;42.40;;;;;;5038697;28;21014;-50
2022/05/18 11:18:59;;;;;;;3.00;2.70;;;29.00;42.10;;;;;;5040837;28;20269;-50
2022/05/18 11:22:22;;;;;;;6.10;2.30;;;29.00;42.40;;;;;;5039868;28;20191;-50
2022/05/18 11:25:22;;;;;;;2.87;2.67;;;28.90;43.10;;;;;;5022379;28;20215;-51
2022/05/18 11:28:18;;;;;;;2.37;2.17;;;28.70;42.20;;;;;;5016494;28;20258;-51
2022/05/18 11:31:09;;;;;;;4.60;2.63;;;28.70;42.90;;;;;;5031700;28;20227;-50
2022/05/18 11:33:45;;;;;;;6.33;2.80;;;28.70;42.40;;;;;;5020557;28;20222;-51
2022/05/18 11:36:37;;;;;;;3.10;2.20;;;28.60;43.00;;;;;;5022339;28;20220;-51
2022/05/18 11:39:21;;;;;;;2.67;2.30;;;28.60;42.20;;;;;;5014683;28;20621;-51
2022/05/18 11:41:53;;;;;;;3.30;2.37;;;28.50;42.40;;;;;;5035540;28;20338;-50
2022/05/18 11:44:36;;;;;;;3.30;2.33;;;28.50;43.10;;;;;;5023578;28;20303;-50
2022/05/18 11:47:24;;;;;;;3.80;2.70;;;28.50;43.20;;;;;;5022967;28;20220;-51
2022/05/18 11:50:00;;;;;;;2.53;2.30;;;28.50;42.70;;;;;;5023349;28;20283;-51
2022/05/18 11:52:35;;;;;;;3.03;2.27;;;28.40;42.50;;;;;;5025241;28;20217;-51
2022/05/18 11:55:17;;;;;;;2.80;2.60;;;28.50;41.80;;;;;;5021085;28;21112;-51
2022/05/18 11:57:59;;;;;;;3.23;2.40;;;28.40;42.00;;;;;;5022594;28;20211;-50
2022/05/18 12:00:57;;;;;;;4.20;2.40;;;28.30;42.30;;;;;;5018986;28;20495;-51
2022/05/18 12:03:36;;;;;;;3.07;2.77;;;28.30;42.30;;;;;;5022458;28;20246;-51
2022/05/18 12:06:24;;;;;;;2.80;2.53;;;28.30;42.60;;;;;;5015626;28;20213;-51
2022/05/18 12:09:00;;;;;;;2.23;2.03;;;28.30;43.10;;;;;;5023533;28;20243;-50
2022/05/18 12:11:35;;;;;;;3.70;2.47;;;28.30;42.80;;;;;;5018024;28;20214;-50
2022/05/18 12:14:25;;;;;;;2.50;2.20;;;28.30;42.40;;;;;;5030513;28;20212;-51
2022/05/18 12:17:01;;;;;;;3.60;2.57;;;28.30;42.10;;;;;;5018943;28;20266;-50
2022/05/18 12:19:41;;;;;;;1.97;1.87;;;28.30;42.40;;;;;;5020414;28;20211;-50
2022/05/18 12:22:12;;;;;;;2.87;2.67;;;28.30;43.30;;;;;;5021818;28;20208;-52
2022/05/18 12:24:42;;;;;;;3.27;2.97;;;28.30;43.00;;;;;;5023770;28;20228;-51
2022/05/18 12:27:12;;;;;;;3.57;2.07;;;28.40;42.80;;;;;;5008596;28;20591;-51
2022/05/18 12:29:40;;;;;;;2.63;2.30;;;28.30;42.60;;;;;;5008724;28;20969;-51
2022/05/18 12:32:09;;;;;;;5.73;2.60;;;28.30;42.60;;;;;;5006819;28;20268;-51
2022/05/18 12:34:39;;;;;;;3.90;2.50;;;28.40;42.60;;;;;;5020035;28;20233;-50
2022/05/18 12:37:23;;;;;;;3.40;2.50;;;28.40;41.80;;;;;;5006445;28;20212;-50
2022/05/18 12:40:03;;;;;;;2.70;2.50;;;28.40;42.10;;;;;;5004332;28;20205;-50
2022/05/18 12:42:41;;;;;;;2.50;2.30;;;28.40;42.40;;;;;;4997905;28;20205;-50
2022/05/18 12:45:29;;;;;;;3.30;2.87;;;28.30;42.80;;;;;;5008520;28;20233;-51
2022/05/18 12:48:15;;;;;;;3.90;2.67;;;28.40;42.70;;;;;;5005263;28;20307;-51
2022/05/18 12:50:58;;;;;;;4.37;2.93;;;28.40;42.50;;;;;;5000444;28;20826;-51
2022/05/18 12:53:33;;;;;;;2.50;2.30;;;28.40;42.80;;;;;;5006558;28;20208;-51
2022/05/18 12:56:10;;;;;;;6.90;2.90;;;28.40;43.10;;;;;;5007276;28;20221;-51
2022/05/18 12:58:43;;;;;;;3.00;2.10;;;28.40;42.20;;;;;;5000266;28;20657;-51
2022/05/18 13:01:19;;;;;;;2.77;2.00;;;28.40;42.70;;;;;;5002946;28;20205;-51
2022/05/18 13:03:57;;;;;;;2.70;2.13;;;28.50;42.60;;;;;;5003463;28;20811;-51
2022/05/18 13:06:36;;;;;;;7.60;2.50;;;28.50;42.90;;;;;;5000979;28;20307;-51
2022/05/18 13:09:22;;;;;;;5.03;2.57;;;28.50;42.70;;;;;;5008807;28;20316;-51
2022/05/18 13:11:54;;;;;;;2.40;2.20;;;28.60;42.60;;;;;;5005798;28;20303;-51
2022/05/18 13:15:00;;;;;;;2.70;1.93;;;28.70;41.70;;;;;;5005248;28;20259;-51
2022/05/18 13:17:47;;;;;;;3.28;2.50;;;28.70;42.00;;;;;;5011058;28;20292;-51
2022/05/18 13:20:47;;;;;;;2.23;1.90;;;28.70;40.60;;;;;;5011141;28;20631;-51
2022/05/18 13:23:20;;;;;;;2.30;2.10;;;28.70;40.30;;;;;;5006297;28;20299;-51
2022/05/18 13:25:52;;;;;;;3.03;2.47;;;28.60;40.50;;;;;;5009010;28;20239;-52
2022/05/18 13:28:23;;;;;;;3.00;2.13;;;28.60;40.50;;;;;;5010888;28;20225;-51
2022/05/18 13:30:53;;;;;;;1.88;1.67;;;28.60;40.30;;;;;;5011789;28;20308;-51